createdAt,value
2017-11-15T00:01:14.747Z,15.50
2017-11-15T00:03:41.323Z,15.77
2017-11-15T00:06:07.910Z,16.10
2017-11-15T00:08:34.706Z,16.17
2017-11-15T00:11:01.279Z,16.93
2017-11-15T00:13:27.881Z,15.90
2017-11-15T00:15:54.465Z,17.10
2017-11-15T00:18:21.049Z,17.07
2017-11-15T00:20:47.654Z,16.57
2017-11-15T00:23:14.225Z,17.83
2017-11-15T00:25:40.814Z,18.33
2017-11-15T00:28:07.410Z,17.80
2017-11-15T00:30:33.991Z,17.50
2017-11-15T00:33:00.597Z,16.77
2017-11-15T00:35:27.189Z,16.60
2017-11-15T00:37:53.774Z,16.50
2017-11-15T00:40:20.354Z,18.47
2017-11-15T00:42:46.947Z,18.80
2017-11-15T00:45:13.520Z,18.13
2017-11-15T00:47:40.121Z,17.33
2017-11-15T00:50:06.714Z,17.83
2017-11-15T00:52:33.282Z,18.87
2017-11-15T00:54:59.870Z,18.20
2017-11-15T00:57:26.455Z,19.10
2017-11-15T00:59:53.038Z,19.00
2017-11-15T01:02:19.622Z,19.07
2017-11-15T01:04:46.210Z,20.17
2017-11-15T01:07:12.802Z,18.57
2017-11-15T01:09:39.407Z,18.70
2017-11-15T01:12:05.989Z,19.17
2017-11-15T01:14:32.622Z,18.80
2017-11-15T01:16:59.215Z,18.90
2017-11-15T01:19:25.798Z,20.20
2017-11-15T01:21:52.384Z,18.57
2017-11-15T01:24:18.966Z,19.87
2017-11-15T01:26:45.553Z,19.53
2017-11-15T01:29:12.137Z,19.80
2017-11-15T01:31:38.734Z,19.17
2017-11-15T01:34:05.328Z,19.60
2017-11-15T01:36:31.922Z,20.00
2017-11-15T01:38:58.502Z,19.47
2017-11-15T01:41:25.118Z,19.83
2017-11-15T01:43:51.698Z,19.33
2017-11-15T01:46:18.283Z,19.47
2017-11-15T01:48:44.869Z,18.00
2017-11-15T01:51:11.450Z,18.83
2017-11-15T01:53:38.037Z,19.37
2017-11-15T01:56:04.635Z,19.27
2017-11-15T01:58:31.222Z,18.60
2017-11-15T02:01:03.559Z,18.90
2017-11-15T02:03:30.158Z,19.57
2017-11-15T02:05:56.739Z,17.80
2017-11-15T02:08:23.319Z,19.17
2017-11-15T02:10:49.902Z,18.23
2017-11-15T02:13:16.484Z,18.60
2017-11-15T02:15:43.069Z,18.40
2017-11-15T02:18:09.650Z,19.30
2017-11-15T02:20:36.247Z,19.30
2017-11-15T02:23:02.832Z,18.70
2017-11-15T02:25:29.418Z,17.80
2017-11-15T02:27:56.010Z,18.80
2017-11-15T02:30:22.583Z,19.60
2017-11-15T02:32:49.179Z,18.50
2017-11-15T02:35:15.755Z,18.17
2017-11-15T02:37:42.339Z,17.67
2017-11-15T02:40:08.925Z,18.80
2017-11-15T02:42:35.516Z,18.70
2017-11-15T02:45:02.093Z,18.97
2017-11-15T02:47:28.685Z,19.07
2017-11-15T02:49:55.269Z,17.73
2017-11-15T02:52:21.845Z,17.43
2017-11-15T02:54:48.434Z,19.73
2017-11-15T02:57:15.018Z,19.47
2017-11-15T02:59:41.605Z,19.90
2017-11-15T03:02:08.186Z,19.90
2017-11-15T03:04:34.782Z,19.87
2017-11-15T03:07:01.365Z,19.03
2017-11-15T03:09:27.956Z,18.83
2017-11-15T03:11:54.534Z,18.80
2017-11-15T03:14:21.113Z,18.90
2017-11-15T03:16:47.703Z,18.13
2017-11-15T03:19:14.282Z,19.03
2017-11-15T03:21:40.870Z,19.10
2017-11-15T03:24:07.462Z,18.73
2017-11-15T03:26:34.063Z,18.60
2017-11-15T03:29:00.637Z,17.70
2017-11-15T03:31:27.222Z,18.00
2017-11-15T03:33:53.805Z,18.07
2017-11-15T03:36:20.390Z,16.70
2017-11-15T03:38:46.983Z,17.53
2017-11-15T03:41:13.562Z,17.40
2017-11-15T03:43:40.152Z,17.60
2017-11-15T03:46:06.730Z,16.53
2017-11-15T03:48:33.324Z,17.10
2017-11-15T03:50:59.902Z,17.67
2017-11-15T03:53:26.490Z,17.40
2017-11-15T03:55:53.077Z,16.83
2017-11-15T03:58:19.658Z,17.10
2017-11-15T04:00:46.252Z,17.97
2017-11-15T04:03:12.831Z,17.10
2017-11-15T04:05:39.420Z,17.43
2017-11-15T04:08:05.998Z,17.63
2017-11-15T04:10:32.582Z,16.50
2017-11-15T04:12:59.161Z,17.40
2017-11-15T04:15:25.749Z,17.57
2017-11-15T04:17:52.330Z,17.13
2017-11-15T04:20:18.917Z,17.77
2017-11-15T04:22:45.500Z,15.87
2017-11-15T04:25:12.078Z,18.50
2017-11-15T04:27:38.670Z,16.73
2017-11-15T04:30:05.434Z,17.57
2017-11-15T04:32:32.022Z,17.27
2017-11-15T04:34:58.606Z,16.70
2017-11-15T04:37:25.193Z,17.27
2017-11-15T04:39:51.783Z,17.43
2017-11-15T04:42:18.373Z,18.70
2017-11-15T04:44:44.954Z,18.03
2017-11-15T04:47:11.537Z,17.10
2017-11-15T04:49:38.131Z,17.30
2017-11-15T04:52:04.709Z,17.33
2017-11-15T04:54:31.298Z,17.97
2017-11-15T04:56:57.883Z,17.60
2017-11-15T04:59:24.490Z,17.27
2017-11-15T05:01:51.053Z,17.73
2017-11-15T05:04:17.654Z,17.27
2017-11-15T05:06:44.237Z,16.77
2017-11-15T05:09:10.810Z,18.77
2017-11-15T05:11:37.402Z,18.10
2017-11-15T05:14:03.982Z,17.97
2017-11-15T05:16:30.574Z,18.50
2017-11-15T05:18:57.158Z,17.70
2017-11-15T05:21:23.741Z,18.43
2017-11-15T05:23:50.325Z,18.70
2017-11-15T05:26:16.915Z,18.60
2017-11-15T05:28:43.497Z,18.63
2017-11-15T05:31:10.096Z,18.03
2017-11-15T05:33:36.696Z,18.70
2017-11-15T05:36:03.263Z,17.70
2017-11-15T05:38:29.851Z,18.87
2017-11-15T05:40:56.434Z,18.30
2017-11-15T05:43:23.014Z,18.30
2017-11-15T05:45:49.605Z,18.07
2017-11-15T05:48:16.205Z,18.13
2017-11-15T05:50:42.792Z,19.37
2017-11-15T05:53:09.386Z,17.20
2017-11-15T05:55:35.991Z,18.13
2017-11-15T05:58:02.594Z,18.70
2017-11-15T06:00:29.183Z,17.50
2017-11-15T06:02:55.773Z,18.80
2017-11-15T06:05:22.359Z,17.20
2017-11-15T06:07:48.946Z,18.43
2017-11-15T06:10:15.532Z,18.43
2017-11-15T06:12:42.132Z,18.57
2017-11-15T06:15:08.733Z,18.27
2017-11-15T06:17:35.378Z,18.00
2017-11-15T06:20:01.945Z,19.47
2017-11-15T06:22:28.521Z,19.30
2017-11-15T06:24:55.098Z,18.23
2017-11-15T06:27:21.701Z,20.30
2017-11-15T06:29:48.306Z,19.27
2017-11-15T06:32:14.883Z,18.40
2017-11-15T06:34:41.529Z,18.57
2017-11-15T06:37:08.129Z,19.27
2017-11-15T06:39:34.638Z,18.00
2017-11-15T06:42:01.230Z,18.83
2017-11-15T06:44:27.807Z,19.60
2017-11-15T06:46:54.397Z,19.40
2017-11-15T06:49:20.979Z,18.90
2017-11-15T06:51:47.561Z,19.33
2017-11-15T06:54:14.147Z,19.17
2017-11-15T06:56:40.729Z,20.03
2017-11-15T06:59:07.322Z,20.13
2017-11-15T07:01:33.952Z,18.97
2017-11-15T07:04:01.306Z,18.30
2017-11-15T07:06:27.887Z,18.57
2017-11-15T07:08:54.473Z,19.07
2017-11-15T07:11:21.099Z,18.10
2017-11-15T07:13:47.735Z,19.70
2017-11-15T07:16:14.318Z,18.90
2017-11-15T07:18:40.922Z,18.47
2017-11-15T07:21:07.567Z,17.97
2017-11-15T07:23:34.160Z,18.57
2017-11-15T07:26:00.742Z,18.90
2017-11-15T07:28:27.329Z,18.20
2017-11-15T07:30:53.990Z,18.60
2017-11-15T07:33:20.563Z,19.13
2017-11-15T07:35:47.146Z,17.37
2017-11-15T07:38:13.786Z,17.57
2017-11-15T07:40:40.374Z,17.80
2017-11-15T07:43:06.959Z,17.40
2017-11-15T07:45:33.534Z,17.70
2017-11-15T07:48:00.125Z,17.23
2017-11-15T07:50:26.710Z,18.40
2017-11-15T07:52:53.298Z,17.30
2017-11-15T07:55:19.889Z,16.70
2017-11-15T07:57:46.481Z,18.30
2017-11-15T08:00:13.070Z,16.27
2017-11-15T08:02:39.646Z,16.33
2017-11-15T08:05:06.234Z,17.00
2017-11-15T08:07:32.841Z,17.73
2017-11-15T08:09:59.403Z,17.80
2017-11-15T08:12:26.016Z,16.27
2017-11-15T08:14:52.618Z,18.53
2017-11-15T08:17:19.205Z,16.90
2017-11-15T08:19:45.797Z,16.23
2017-11-15T08:22:12.387Z,16.97
2017-11-15T08:24:39.038Z,16.77
2017-11-15T08:27:05.621Z,15.60
2017-11-15T08:29:32.202Z,17.40
2017-11-15T08:31:58.792Z,16.50
2017-11-15T08:34:25.375Z,17.40
2017-11-15T08:36:51.964Z,16.93
2017-11-15T08:39:18.541Z,15.87
2017-11-15T08:41:45.135Z,16.13
2017-11-15T08:44:11.722Z,16.67
2017-11-15T08:46:38.298Z,16.83
2017-11-15T08:49:04.894Z,15.77
2017-11-15T08:51:31.479Z,16.90
2017-11-15T08:53:58.062Z,16.70
2017-11-15T08:56:24.641Z,16.60
2017-11-15T08:58:51.235Z,16.47
2017-11-15T09:01:17.818Z,15.90
2017-11-15T09:03:44.398Z,16.20
2017-11-15T09:06:11.009Z,15.70
2017-11-15T09:08:37.606Z,19.57
2017-11-15T09:11:04.174Z,17.17
2017-11-15T09:13:30.770Z,17.83
2017-11-15T09:15:57.358Z,17.63
2017-11-15T09:18:23.947Z,16.37
2017-11-15T09:20:50.525Z,16.07
2017-11-15T09:23:17.104Z,16.10
2017-11-15T09:25:43.688Z,16.80
2017-11-15T09:28:10.302Z,15.90
2017-11-15T09:30:36.890Z,15.90
2017-11-15T09:33:03.466Z,15.83
2017-11-15T09:35:30.050Z,15.60
2017-11-15T09:37:56.629Z,16.63
2017-11-15T09:40:23.217Z,18.50
2017-11-15T09:42:49.798Z,17.37
2017-11-15T09:45:16.381Z,18.13
2017-11-15T09:47:42.964Z,15.50
2017-11-15T09:50:09.562Z,13.67
2017-11-15T09:52:36.146Z,15.10
2017-11-15T09:55:02.736Z,14.80
2017-11-15T09:57:29.666Z,15.37
2017-11-15T09:59:56.274Z,14.60
2017-11-15T10:02:22.861Z,14.17
2017-11-15T10:04:49.442Z,13.83
2017-11-15T10:07:16.039Z,13.83
2017-11-15T10:09:42.618Z,13.47
2017-11-15T10:12:09.206Z,14.73
2017-11-15T10:14:35.803Z,14.73
2017-11-15T10:17:04.760Z,13.03
2017-11-15T10:19:31.341Z,13.30
2017-11-15T10:21:57.915Z,15.27
2017-11-15T10:24:24.505Z,14.17
2017-11-15T10:26:51.091Z,14.97
2017-11-15T10:29:17.681Z,15.00
2017-11-15T10:31:44.259Z,12.87
2017-11-15T10:34:10.842Z,14.10
2017-11-15T10:36:37.443Z,13.57
2017-11-15T10:39:04.022Z,14.53
2017-11-15T10:41:30.629Z,14.10
2017-11-15T10:43:57.195Z,15.00
2017-11-15T10:46:23.786Z,14.00
2017-11-15T10:48:50.370Z,13.77
2017-11-15T10:51:16.979Z,13.70
2017-11-15T10:53:43.554Z,14.40
2017-11-15T10:56:10.260Z,12.73
2017-11-15T10:58:36.869Z,13.33
2017-11-15T11:01:03.445Z,13.17
2017-11-15T11:03:30.810Z,14.10
2017-11-15T11:05:57.405Z,13.60
2017-11-15T11:08:23.990Z,12.57
2017-11-15T11:10:50.570Z,14.43
2017-11-15T11:13:17.175Z,12.50
2017-11-15T11:15:43.770Z,12.33
2017-11-15T11:18:10.366Z,13.83
2017-11-15T11:20:36.964Z,13.20
2017-11-15T11:23:03.542Z,13.20
2017-11-15T11:25:30.135Z,13.60
2017-11-15T11:27:56.739Z,13.23
2017-11-15T11:30:23.317Z,13.80
2017-11-15T11:32:49.902Z,13.63
2017-11-15T11:35:16.512Z,13.57
2017-11-15T11:37:43.085Z,13.80
2017-11-15T11:40:09.675Z,13.60
2017-11-15T11:42:36.291Z,13.17
2017-11-15T11:45:02.881Z,13.17
2017-11-15T11:47:29.502Z,14.30
2017-11-15T11:49:56.169Z,14.23
2017-11-15T11:52:22.755Z,13.77
2017-11-15T11:54:49.338Z,14.00
2017-11-15T11:57:15.926Z,14.10
2017-11-15T11:59:42.506Z,13.00
2017-11-15T12:02:09.096Z,13.33
2017-11-15T12:04:36.387Z,13.43
2017-11-15T12:07:02.965Z,12.90
2017-11-15T12:09:29.558Z,13.57
2017-11-15T12:11:56.134Z,13.60
2017-11-15T12:14:22.736Z,11.57
2017-11-15T12:16:49.320Z,12.90
2017-11-15T12:19:15.898Z,13.33
2017-11-15T12:21:42.491Z,12.80
2017-11-15T12:24:09.077Z,12.83
2017-11-15T12:26:35.675Z,11.97
2017-11-15T12:29:03.098Z,12.27
2017-11-15T12:31:29.799Z,11.90
2017-11-15T12:33:56.374Z,12.13
2017-11-15T12:36:23.086Z,12.40
2017-11-15T12:38:49.661Z,13.10
2017-11-15T12:41:16.239Z,11.40
2017-11-15T12:43:42.827Z,11.27
2017-11-15T12:46:09.424Z,11.43
2017-11-15T12:48:36.085Z,10.97
2017-11-15T12:51:02.778Z,11.13
2017-11-15T12:53:29.600Z,10.67
2017-11-15T12:55:56.180Z,10.80
2017-11-15T12:58:22.769Z,10.50
2017-11-15T13:00:49.347Z,10.43
2017-11-15T13:03:15.934Z,10.37
2017-11-15T13:05:42.519Z,11.43
2017-11-15T13:08:09.105Z,11.30
2017-11-15T13:10:35.694Z,10.87
2017-11-15T13:13:02.286Z,10.23
2017-11-15T13:15:28.864Z,9.70
2017-11-15T13:17:55.552Z,9.63
2017-11-15T13:20:22.158Z,10.17
2017-11-15T13:22:48.742Z,10.67
2017-11-15T13:25:15.326Z,11.20
2017-11-15T13:27:41.916Z,10.47
2017-11-15T13:30:08.497Z,11.10
2017-11-15T13:32:35.086Z,9.80
2017-11-15T13:35:01.666Z,9.80
2017-11-15T13:37:28.278Z,9.67
2017-11-15T13:39:54.846Z,9.83
2017-11-15T13:42:21.440Z,9.70
2017-11-15T13:44:48.023Z,9.50
2017-11-15T13:47:14.603Z,9.60
2017-11-15T13:49:41.189Z,9.40
2017-11-15T13:52:07.772Z,9.50
2017-11-15T13:54:34.387Z,9.50
2017-11-15T13:57:00.962Z,9.37
2017-11-15T13:59:27.550Z,9.40
2017-11-15T14:01:54.131Z,9.17
2017-11-15T14:04:20.717Z,9.07
2017-11-15T14:06:47.293Z,9.40
2017-11-15T14:09:13.904Z,9.23
2017-11-15T14:11:40.477Z,9.60
2017-11-15T14:14:07.064Z,11.50
2017-11-15T14:16:33.643Z,9.30
2017-11-15T14:19:00.227Z,14.33
2017-11-15T14:21:26.814Z,14.30
2017-11-15T14:23:53.403Z,12.27
2017-11-15T14:26:19.990Z,9.00
2017-11-15T14:28:46.573Z,10.03
2017-11-15T14:31:13.154Z,9.70
2017-11-15T14:33:39.738Z,9.70
2017-11-15T14:36:06.318Z,8.00
2017-11-15T14:38:32.902Z,8.23
2017-11-15T14:40:59.479Z,8.70
2017-11-15T14:43:26.075Z,8.93
2017-11-15T14:45:52.653Z,8.20
2017-11-15T14:48:19.242Z,8.20
2017-11-15T14:50:45.821Z,8.03
2017-11-15T14:53:12.406Z,7.57
2017-11-15T14:55:38.993Z,7.43
2017-11-15T14:58:05.573Z,8.20
2017-11-15T15:00:32.153Z,7.57
2017-11-15T15:02:58.734Z,6.70
2017-11-15T15:05:25.314Z,7.10
2017-11-15T15:07:51.894Z,8.00
2017-11-15T15:10:18.495Z,7.70
2017-11-15T15:12:45.062Z,6.93
2017-11-15T15:15:11.646Z,6.77
2017-11-15T15:17:38.225Z,6.93
2017-11-15T15:20:04.803Z,7.27
2017-11-15T15:22:31.386Z,9.07
2017-11-15T15:24:57.972Z,7.33
2017-11-15T15:27:24.554Z,6.90
2017-11-15T15:29:51.170Z,6.97
2017-11-15T15:32:17.759Z,6.50
2017-11-15T15:34:44.338Z,7.47
2017-11-15T15:37:10.925Z,7.07
2017-11-15T15:39:37.504Z,7.10
2017-11-15T15:42:04.127Z,7.27
2017-11-15T15:44:30.771Z,6.50
2017-11-15T15:46:57.350Z,7.33
2017-11-15T15:49:23.939Z,7.50
2017-11-15T15:51:50.513Z,7.50
2017-11-15T15:54:17.110Z,7.90
2017-11-15T15:56:43.689Z,7.73
2017-11-15T15:59:10.298Z,7.13
2017-11-15T16:01:36.889Z,7.23
2017-11-15T16:04:03.469Z,7.13
2017-11-15T16:06:30.062Z,6.97
2017-11-15T16:08:56.641Z,7.20
2017-11-15T16:11:23.218Z,7.03
2017-11-15T16:13:49.794Z,7.00
2017-11-15T16:16:16.377Z,6.83
2017-11-15T16:18:42.950Z,7.30
2017-11-15T16:21:09.552Z,6.60
2017-11-15T16:23:36.126Z,6.13
2017-11-15T16:26:02.703Z,6.90
2017-11-15T16:28:29.281Z,6.40
2017-11-15T16:30:55.859Z,7.20
2017-11-15T16:33:22.434Z,6.53
2017-11-15T16:35:49.010Z,8.63
2017-11-15T16:38:15.598Z,11.40
2017-11-15T16:40:42.179Z,7.00
2017-11-15T16:43:08.783Z,8.40
2017-11-15T16:45:35.358Z,8.17
2017-11-15T16:48:01.959Z,8.80
2017-11-15T16:50:28.534Z,10.33
2017-11-15T16:52:55.113Z,9.43
2017-11-15T16:55:21.703Z,7.43
2017-11-15T16:57:48.277Z,7.10
2017-11-15T17:00:14.857Z,6.90
2017-11-15T17:02:41.467Z,7.43
2017-11-15T17:05:08.053Z,7.50
2017-11-15T17:07:34.638Z,7.47
2017-11-15T17:10:01.223Z,7.43
2017-11-15T17:12:27.853Z,6.70
2017-11-15T17:14:54.421Z,7.50
2017-11-15T17:17:21.007Z,7.30
2017-11-15T17:19:47.583Z,6.70
2017-11-15T17:22:14.162Z,7.77
2017-11-15T17:24:40.743Z,7.90
2017-11-15T17:27:07.326Z,8.10
2017-11-15T17:29:33.904Z,9.40
2017-11-15T17:32:00.489Z,12.73
2017-11-15T17:34:27.130Z,10.87
2017-11-15T17:36:53.715Z,10.00
2017-11-15T17:39:20.306Z,10.30
2017-11-15T17:41:46.886Z,8.73
2017-11-15T17:44:13.473Z,8.73
2017-11-15T17:46:40.099Z,8.43
2017-11-15T17:49:06.781Z,8.20
2017-11-15T17:51:33.372Z,8.03
2017-11-15T17:53:59.955Z,7.80
2017-11-15T17:56:26.553Z,8.37
2017-11-15T17:58:53.148Z,8.13
2017-11-15T18:01:19.722Z,7.83
2017-11-15T18:03:46.305Z,7.97
2017-11-15T18:06:12.899Z,8.10
2017-11-15T18:08:39.489Z,7.43
2017-11-15T18:11:06.078Z,7.77
2017-11-15T18:13:32.654Z,7.80
2017-11-15T18:15:59.241Z,7.47
2017-11-15T18:18:25.814Z,7.60
2017-11-15T18:20:52.422Z,7.77
2017-11-15T18:23:19.011Z,7.77
2017-11-15T18:25:45.587Z,8.50
2017-11-15T18:28:12.165Z,8.20
2017-11-15T18:30:38.745Z,8.00
2017-11-15T18:33:05.334Z,8.20
2017-11-15T18:35:31.916Z,8.47
2017-11-15T18:37:58.493Z,7.73
2017-11-15T18:40:25.062Z,7.70
2017-11-15T18:42:51.649Z,7.80
2017-11-15T18:45:18.224Z,7.50
2017-11-15T18:47:44.809Z,7.10
2017-11-15T18:50:11.397Z,6.73
2017-11-15T18:52:37.970Z,6.50
2017-11-15T18:55:04.567Z,7.00
2017-11-15T18:57:31.143Z,6.20
2017-11-15T18:59:57.740Z,6.73
2017-11-15T19:02:24.320Z,6.87
2017-11-15T19:04:50.930Z,7.03
2017-11-15T19:07:17.517Z,8.20
2017-11-15T19:09:44.126Z,7.47
2017-11-15T19:12:10.706Z,7.97
2017-11-15T19:14:37.320Z,7.57
2017-11-15T19:17:03.897Z,7.17
2017-11-15T19:19:30.507Z,6.80
2017-11-15T19:21:57.086Z,7.27
2017-11-15T19:24:24.546Z,7.63
2017-11-15T19:26:51.134Z,8.60
2017-11-15T19:29:17.717Z,7.73
2017-11-15T19:31:44.298Z,7.93
2017-11-15T19:34:10.889Z,8.40
2017-11-15T19:36:37.486Z,8.70
2017-11-15T19:39:04.058Z,7.07
2017-11-15T19:41:30.653Z,6.87
2017-11-15T19:43:57.238Z,7.10
2017-11-15T19:46:23.811Z,6.97
2017-11-15T19:48:50.386Z,7.20
2017-11-15T19:51:16.995Z,6.97
2017-11-15T19:53:43.644Z,5.63
2017-11-15T19:56:10.428Z,6.60
2017-11-15T19:58:37.073Z,6.07
2017-11-15T20:01:03.650Z,6.63
2017-11-15T20:03:30.250Z,6.50
2017-11-15T20:05:56.814Z,6.40
2017-11-15T20:08:23.409Z,6.10
2017-11-15T20:10:49.993Z,5.93
2017-11-15T20:13:16.572Z,6.30
2017-11-15T20:15:43.150Z,5.27
2017-11-15T20:18:09.743Z,5.70
2017-11-15T20:20:36.350Z,5.57
2017-11-15T20:23:02.943Z,6.47
2017-11-15T20:25:29.543Z,6.77
2017-11-15T20:27:56.122Z,5.97
2017-11-15T20:30:22.722Z,5.50
2017-11-15T20:32:49.317Z,5.57
2017-11-15T20:35:15.886Z,5.63
2017-11-15T20:37:42.477Z,6.90
2017-11-15T20:40:09.058Z,6.10
2017-11-15T20:42:35.664Z,5.63
2017-11-15T20:45:02.243Z,6.13
2017-11-15T20:47:28.862Z,6.37
2017-11-15T20:49:56.230Z,5.93
2017-11-15T20:52:22.878Z,6.30
2017-11-15T20:54:49.497Z,6.10
2017-11-15T20:57:16.082Z,6.23
2017-11-15T20:59:42.666Z,6.53
2017-11-15T21:02:09.234Z,6.50
2017-11-15T21:04:35.818Z,7.47
2017-11-15T21:07:02.409Z,6.50
2017-11-15T21:09:28.978Z,6.43
2017-11-15T21:11:55.574Z,6.30
2017-11-15T21:14:22.257Z,7.13
2017-11-15T21:16:48.849Z,6.53
2017-11-15T21:19:16.312Z,6.40
2017-11-15T21:21:42.897Z,7.10
2017-11-15T21:24:09.492Z,7.37
2017-11-15T21:26:36.111Z,6.93
2017-11-15T21:29:02.714Z,7.23
2017-11-15T21:31:29.296Z,7.10
2017-11-15T21:33:55.887Z,6.73
2017-11-15T21:36:22.487Z,7.00
2017-11-15T21:38:49.086Z,6.70
2017-11-15T21:41:15.658Z,7.30
2017-11-15T21:43:42.246Z,7.90
2017-11-15T21:46:08.846Z,7.20
2017-11-15T21:48:35.412Z,7.23
2017-11-15T21:51:02.006Z,7.10
2017-11-15T21:53:28.570Z,6.50
2017-11-15T21:55:55.158Z,7.13
2017-11-15T21:58:21.733Z,7.10
2017-11-15T22:00:48.342Z,7.00
2017-11-15T22:03:14.922Z,7.50
2017-11-15T22:05:41.493Z,7.23
2017-11-15T22:08:08.082Z,7.37
2017-11-15T22:10:34.653Z,6.57
2017-11-15T22:13:01.240Z,7.27
2017-11-15T22:15:27.810Z,6.80
2017-11-15T22:17:54.395Z,6.67
2017-11-15T22:20:20.969Z,6.53
2017-11-15T22:22:47.553Z,6.67
2017-11-15T22:25:14.121Z,6.67
2017-11-15T22:27:40.714Z,7.47
2017-11-15T22:30:07.290Z,6.77
2017-11-15T22:32:33.875Z,7.13
2017-11-15T22:35:00.455Z,7.27
2017-11-15T22:37:27.028Z,7.00
2017-11-15T22:39:53.612Z,6.27
2017-11-15T22:42:20.188Z,6.80
2017-11-15T22:44:46.767Z,7.20
2017-11-15T22:47:13.344Z,7.10
2017-11-15T22:49:39.936Z,7.10
2017-11-15T22:52:06.510Z,7.40
2017-11-15T22:54:33.094Z,7.23
2017-11-15T22:56:59.677Z,7.27
2017-11-15T22:59:26.246Z,6.60
2017-11-15T23:01:52.830Z,7.17
2017-11-15T23:04:19.410Z,7.53
2017-11-15T23:06:45.993Z,7.40
2017-11-15T23:09:12.574Z,8.57
2017-11-15T23:11:39.163Z,7.50
2017-11-15T23:14:05.750Z,7.23
2017-11-15T23:16:32.323Z,7.30
2017-11-15T23:18:58.897Z,7.60
2017-11-15T23:21:25.477Z,7.67
2017-11-15T23:23:52.054Z,7.00
2017-11-15T23:26:18.633Z,7.40
2017-11-15T23:28:45.227Z,7.87
2017-11-15T23:31:11.806Z,8.37
2017-11-15T23:33:38.394Z,8.40
2017-11-15T23:36:04.974Z,8.30
2017-11-15T23:38:31.559Z,8.10
2017-11-15T23:40:58.134Z,8.50
2017-11-15T23:43:24.734Z,8.13
2017-11-15T23:45:51.309Z,7.80
2017-11-15T23:48:17.885Z,8.50
2017-11-15T23:50:44.470Z,7.90
2017-11-15T23:53:11.059Z,8.00
2017-11-15T23:55:37.638Z,7.90
2017-11-15T23:58:04.213Z,8.37
